createdAt,value
2022-08-23T00:02:25.434Z,11.95
2022-08-23T00:05:04.192Z,10.32
2022-08-23T00:07:40.637Z,11.00
2022-08-23T00:10:10.928Z,10.52
2022-08-23T00:12:39.159Z,10.77
2022-08-23T00:15:08.779Z,11.05
2022-08-23T00:17:36.162Z,10.40
2022-08-23T00:20:05.252Z,10.63
2022-08-23T00:22:32.554Z,9.95
2022-08-23T00:25:01.264Z,9.73
2022-08-23T00:27:29.087Z,10.23
2022-08-23T00:29:57.855Z,9.43
2022-08-23T00:32:27.159Z,9.07
2022-08-23T00:34:55.918Z,9.90
2022-08-23T00:37:23.784Z,10.10
2022-08-23T00:39:51.235Z,9.95
2022-08-23T00:42:32.903Z,9.88
2022-08-23T00:45:02.911Z,9.98
2022-08-23T00:47:30.792Z,9.50
2022-08-23T00:50:23.453Z,9.38
2022-08-23T00:53:00.580Z,9.93
2022-08-23T00:55:28.829Z,10.55
2022-08-23T00:57:58.215Z,10.65
2022-08-23T01:00:26.009Z,10.40
2022-08-23T01:02:54.318Z,9.85
2022-08-23T01:05:25.555Z,9.65
2022-08-23T01:07:56.200Z,10.77
2022-08-23T01:10:28.763Z,9.93
2022-08-23T01:13:02.336Z,10.77
2022-08-23T01:15:35.135Z,10.43
2022-08-23T01:18:06.537Z,9.82
2022-08-23T01:20:41.217Z,10.32
2022-08-23T01:23:28.139Z,10.70
2022-08-23T01:25:56.443Z,10.07
2022-08-23T01:28:23.747Z,10.80
2022-08-23T01:30:51.295Z,10.57
2022-08-23T01:33:18.936Z,10.25
2022-08-23T01:35:49.127Z,10.60
2022-08-23T01:38:16.783Z,10.35
2022-08-23T01:40:46.478Z,9.95
2022-08-23T01:43:23.556Z,11.55
2022-08-23T01:45:57.126Z,9.77
2022-08-23T01:48:50.350Z,9.98
2022-08-23T01:51:23.772Z,10.38
2022-08-23T01:54:00.717Z,10.27
2022-08-23T01:56:39.523Z,9.70
2022-08-23T01:59:08.136Z,9.52
2022-08-23T02:01:36.578Z,11.00
2022-08-23T02:04:05.372Z,10.98
2022-08-23T02:06:33.189Z,8.77
2022-08-23T02:09:01.080Z,9.70
2022-08-23T02:11:33.640Z,9.73
2022-08-23T02:14:08.702Z,10.38
2022-08-23T02:16:39.019Z,9.52
2022-08-23T02:19:08.202Z,8.30
2022-08-23T02:21:36.176Z,9.23
2022-08-23T02:24:05.508Z,9.02
2022-08-23T02:26:32.926Z,9.02
2022-08-23T02:29:05.596Z,9.75
2022-08-23T02:31:34.145Z,9.32
2022-08-23T02:34:02.269Z,9.35
2022-08-23T02:36:31.067Z,9.32
2022-08-23T02:38:58.740Z,9.55
2022-08-23T02:41:26.181Z,9.20
2022-08-23T02:43:54.168Z,9.00
2022-08-23T02:46:24.061Z,8.35
2022-08-23T02:48:51.313Z,8.43
2022-08-23T02:51:18.966Z,8.50
2022-08-23T02:53:46.871Z,7.50
2022-08-23T02:56:21.769Z,7.93
2022-08-23T02:58:54.238Z,7.72
2022-08-23T03:01:27.064Z,7.47
2022-08-23T03:03:55.165Z,7.10
2022-08-23T03:06:24.308Z,6.53
2022-08-23T03:08:52.495Z,6.55
2022-08-23T03:11:21.829Z,6.22
2022-08-23T03:13:50.202Z,6.13
2022-08-23T03:16:18.456Z,5.78
2022-08-23T03:18:47.795Z,6.32
2022-08-23T03:21:15.461Z,5.82
2022-08-23T03:23:43.052Z,5.82
2022-08-23T03:26:12.740Z,5.55
2022-08-23T03:28:41.651Z,6.10
2022-08-23T03:31:10.022Z,6.47
2022-08-23T03:33:38.013Z,5.60
2022-08-23T03:36:10.102Z,5.88
2022-08-23T03:38:38.415Z,5.88
2022-08-23T03:41:06.769Z,4.78
2022-08-23T03:43:35.047Z,5.60
2022-08-23T03:46:02.376Z,4.95
2022-08-23T03:48:30.029Z,5.57
2022-08-23T03:50:57.387Z,6.07
2022-08-23T03:53:26.335Z,6.72
2022-08-23T03:55:55.333Z,6.10
2022-08-23T03:58:22.527Z,6.30
2022-08-23T04:00:49.791Z,6.57
2022-08-23T04:03:17.433Z,6.25
2022-08-23T04:05:44.736Z,5.70
2022-08-23T04:08:12.637Z,6.60
2022-08-23T04:10:41.909Z,5.10
2022-08-23T04:13:09.380Z,5.38
2022-08-23T04:15:36.660Z,5.80
2022-08-23T04:18:04.609Z,5.88
2022-08-23T04:20:32.021Z,5.47
2022-08-23T04:22:59.160Z,5.40
2022-08-23T04:25:34.803Z,5.65
2022-08-23T04:28:04.848Z,5.07
2022-08-23T04:30:33.419Z,5.70
2022-08-23T04:33:01.538Z,5.05
2022-08-23T04:35:29.030Z,6.07
2022-08-23T04:37:56.691Z,5.57
2022-08-23T04:40:24.071Z,5.95
2022-08-23T04:42:51.395Z,5.70
2022-08-23T04:45:20.493Z,6.20
2022-08-23T04:47:47.898Z,6.00
2022-08-23T04:50:15.729Z,5.88
2022-08-23T04:52:43.417Z,6.28
2022-08-23T04:55:10.800Z,5.70
2022-08-23T04:57:38.069Z,5.80
2022-08-23T05:00:07.216Z,5.82
2022-08-23T05:02:36.058Z,5.57
2022-08-23T05:05:03.900Z,5.55
2022-08-23T05:07:41.898Z,4.82
2022-08-23T05:12:51.975Z,5.32
2022-08-23T05:15:50.517Z,5.43
2022-08-23T05:18:33.552Z,5.10
2022-08-23T05:21:05.985Z,4.85
2022-08-23T05:23:35.063Z,5.47
2022-08-23T05:26:02.412Z,5.43
2022-08-23T05:28:32.330Z,5.65
2022-08-23T05:31:03.089Z,5.30
2022-08-23T05:33:32.750Z,5.15
2022-08-23T05:36:00.532Z,5.90
2022-08-23T05:38:28.788Z,5.57
2022-08-23T05:40:59.850Z,5.25
2022-08-23T05:43:27.199Z,5.78
2022-08-23T05:46:00.385Z,5.78
2022-08-23T05:48:29.065Z,5.78
2022-08-23T05:50:58.207Z,5.22
2022-08-23T05:53:25.429Z,5.40
2022-08-23T05:55:52.723Z,4.95
2022-08-23T05:58:20.274Z,4.40
2022-08-23T06:00:47.567Z,4.25
2022-08-23T06:03:14.831Z,4.22
2022-08-23T06:05:42.327Z,4.07
2022-08-23T06:08:11.024Z,4.18
2022-08-23T06:10:41.726Z,4.10
2022-08-23T06:13:09.562Z,4.65
2022-08-23T06:15:42.664Z,4.95
2022-08-23T06:18:09.882Z,4.47
2022-08-23T06:20:37.451Z,4.30
2022-08-23T06:23:07.041Z,4.90
2022-08-23T06:25:38.297Z,5.00
2022-08-23T06:30:36.080Z,4.72
2022-08-23T06:33:07.375Z,5.20
2022-08-23T06:35:40.014Z,5.38
2022-08-23T06:38:08.557Z,5.80
2022-08-23T06:40:37.288Z,5.25
2022-08-23T06:43:06.700Z,5.03
2022-08-23T06:45:35.260Z,4.68
2022-08-23T06:48:03.003Z,4.85
2022-08-23T06:50:32.532Z,5.28
2022-08-23T06:53:00.728Z,6.22
2022-08-23T06:55:34.393Z,6.45
2022-08-23T06:58:07.449Z,6.45
2022-08-23T07:00:34.878Z,6.15
2022-08-23T07:03:02.653Z,5.78
2022-08-23T07:05:30.104Z,6.03
2022-08-23T07:07:57.461Z,5.72
2022-08-23T07:10:25.060Z,6.47
2022-08-23T07:12:52.491Z,5.88
2022-08-23T07:15:24.156Z,5.43
2022-08-23T07:17:51.714Z,6.88
2022-08-23T07:20:19.089Z,6.18
2022-08-23T07:22:46.635Z,6.25
2022-08-23T07:25:14.376Z,5.05
2022-08-23T07:27:45.571Z,6.25
2022-08-23T07:30:13.282Z,6.28
2022-08-23T07:32:42.265Z,6.35
2022-08-23T07:35:09.628Z,6.20
2022-08-23T07:37:36.968Z,7.07
2022-08-23T07:40:05.532Z,6.75
2022-08-23T07:42:32.837Z,6.70
2022-08-23T07:45:00.292Z,6.95
2022-08-23T07:47:27.762Z,6.57
2022-08-23T07:49:56.414Z,6.57
2022-08-23T07:52:23.868Z,6.88
2022-08-23T07:54:51.343Z,6.72
2022-08-23T07:57:18.703Z,5.90
2022-08-23T07:59:46.060Z,6.55
2022-08-23T08:02:13.609Z,6.03
2022-08-23T08:04:41.166Z,6.70
2022-08-23T08:07:25.150Z,6.40
2022-08-23T08:09:53.804Z,7.00
2022-08-23T08:12:22.178Z,7.38
2022-08-23T08:14:49.450Z,7.43
2022-08-23T08:17:17.896Z,7.15
2022-08-23T08:19:45.372Z,7.25
2022-08-23T08:22:14.043Z,7.65
2022-08-23T08:24:41.867Z,7.47
2022-08-23T08:27:09.261Z,8.13
2022-08-23T08:29:36.713Z,7.18
2022-08-23T08:32:04.609Z,7.68
2022-08-23T08:34:31.930Z,8.38
2022-08-23T08:36:59.271Z,8.23
2022-08-23T08:39:31.507Z,8.43
2022-08-23T08:42:15.314Z,8.75
2022-08-23T08:44:48.282Z,8.60
2022-08-23T08:47:19.736Z,8.93
2022-08-23T08:49:53.100Z,10.00
2022-08-23T08:52:25.759Z,9.82
2022-08-23T08:55:02.925Z,9.65
2022-08-23T08:57:38.032Z,9.60
2022-08-23T09:00:10.575Z,10.73
2022-08-23T09:02:37.973Z,9.40
2022-08-23T09:05:11.495Z,11.18
2022-08-23T09:07:50.970Z,10.20
2022-08-23T09:10:36.479Z,10.00
2022-08-23T09:13:23.253Z,10.02
2022-08-23T09:16:03.219Z,8.88
2022-08-23T09:18:34.806Z,9.50
2022-08-23T09:21:05.666Z,11.15
2022-08-23T09:23:36.740Z,10.25
2022-08-23T09:26:17.724Z,9.75
2022-08-23T09:28:47.938Z,9.93
2022-08-23T09:31:37.027Z,10.15
2022-08-23T09:34:05.450Z,10.85
2022-08-23T09:36:35.008Z,10.20
2022-08-23T09:39:05.501Z,9.75
2022-08-23T09:41:36.485Z,10.88
2022-08-23T09:44:06.882Z,10.55
2022-08-23T09:46:38.157Z,10.27
2022-08-23T09:49:25.017Z,8.85
2022-08-23T09:51:54.344Z,8.85
2022-08-23T09:54:27.060Z,9.18
2022-08-23T09:56:59.792Z,10.00
2022-08-23T09:59:43.201Z,10.38
2022-08-23T10:02:24.785Z,9.30
2022-08-23T10:07:32.593Z,10.25
2022-08-23T10:10:21.443Z,11.68
2022-08-23T10:12:51.207Z,9.88
2022-08-23T10:15:18.774Z,11.05
2022-08-23T10:17:54.422Z,10.02
2022-08-23T10:20:31.966Z,10.25
2022-08-23T10:23:15.201Z,10.68
2022-08-23T10:25:54.251Z,12.38
2022-08-23T10:28:39.556Z,10.98
2022-08-23T10:31:18.655Z,11.57
2022-08-23T10:33:49.959Z,10.60
2022-08-23T10:36:29.036Z,10.73
2022-08-23T10:38:58.406Z,13.13
2022-08-23T10:41:42.907Z,12.75
2022-08-23T11:35:43.711Z,13.80
2022-08-23T11:38:12.963Z,13.80
2022-08-23T11:40:59.256Z,14.20
2022-08-23T11:43:33.104Z,13.90
2022-08-23T11:46:31.691Z,14.60
2022-08-23T11:49:24.897Z,13.57
2022-08-23T11:52:06.205Z,13.15
2022-08-23T11:54:48.697Z,12.68
2022-08-23T11:57:29.952Z,13.52
2022-08-23T12:00:15.566Z,13.02
2022-08-23T12:02:57.035Z,10.57
2022-08-23T12:05:42.292Z,12.13
2022-08-23T12:08:31.225Z,10.50
2022-08-23T12:11:03.783Z,11.02
2022-08-23T12:13:45.236Z,12.05
2022-08-23T12:16:31.133Z,12.00
2022-08-23T12:19:02.795Z,11.73
2022-08-23T12:21:34.384Z,11.48
2022-08-23T12:24:14.361Z,10.75
2022-08-23T12:26:48.894Z,12.65
2022-08-23T12:29:28.184Z,12.52
2022-08-23T12:32:03.638Z,11.85
2022-08-23T12:34:39.715Z,13.05
2022-08-23T12:37:17.000Z,12.32
2022-08-23T12:39:51.365Z,12.15
2022-08-23T12:42:25.039Z,12.18
2022-08-23T12:45:01.047Z,13.77
2022-08-23T12:47:28.604Z,12.38
2022-08-23T12:49:58.416Z,14.48
2022-08-23T12:52:28.933Z,14.70
2022-08-23T12:54:58.803Z,15.13
2022-08-23T12:57:34.018Z,14.77
2022-08-23T13:00:17.643Z,15.18
2022-08-23T13:02:51.472Z,14.20
2022-08-23T13:05:30.435Z,15.85
2022-08-23T13:07:58.772Z,14.13
2022-08-23T13:10:27.770Z,14.10
2022-08-23T13:12:55.108Z,13.52
2022-08-23T13:15:43.290Z,14.68
2022-08-23T13:18:11.533Z,14.18
2022-08-23T13:20:38.852Z,14.63
2022-08-23T13:23:08.375Z,15.15
2022-08-23T13:25:39.444Z,14.70
2022-08-23T13:28:21.457Z,15.63
2022-08-23T13:30:59.353Z,15.25
2022-08-23T13:33:26.869Z,15.25
2022-08-23T13:36:13.239Z,16.08
2022-08-23T13:38:42.776Z,14.98
2022-08-23T13:41:29.432Z,15.25
2022-08-23T13:43:57.133Z,15.05
2022-08-23T13:46:28.095Z,16.23
2022-08-23T13:49:00.389Z,16.98
2022-08-23T13:51:31.430Z,17.25
2022-08-23T13:54:01.635Z,16.10
2022-08-23T13:56:34.931Z,16.75
2022-08-23T13:59:07.768Z,17.13
2022-08-23T14:01:36.522Z,18.38
2022-08-23T14:04:04.257Z,17.60
2022-08-23T14:06:31.767Z,17.05
2022-08-23T14:08:59.786Z,17.10
2022-08-23T14:11:27.333Z,18.75
2022-08-23T14:13:56.461Z,17.10
2022-08-23T14:16:39.887Z,18.35
2022-08-23T14:19:54.688Z,17.73
2022-08-23T14:21:58.646Z,17.52
2022-08-23T14:24:26.971Z,16.85
2022-08-23T14:26:55.982Z,18.25
2022-08-23T14:29:26.408Z,17.15
2022-08-23T14:31:54.893Z,17.63
2022-08-23T14:34:22.353Z,18.55
2022-08-23T14:39:38.293Z,16.25
2022-08-23T14:42:07.077Z,17.50
2022-08-23T14:44:36.445Z,18.25
2022-08-23T14:47:05.016Z,15.98
2022-08-23T14:49:33.330Z,16.05
2022-08-23T14:52:01.081Z,16.50
2022-08-23T14:54:28.481Z,16.55
2022-08-23T14:56:56.044Z,17.85
2022-08-23T14:59:23.405Z,19.08
2022-08-23T15:01:53.980Z,17.95
2022-08-23T15:04:23.857Z,14.85
2022-08-23T15:07:16.593Z,14.30
2022-08-23T15:09:41.182Z,13.63
2022-08-23T15:14:57.129Z,13.05
2022-08-23T15:17:31.266Z,13.32
2022-08-23T15:19:59.833Z,12.90
2022-08-23T15:22:27.505Z,14.02
2022-08-23T15:24:54.760Z,11.68
2022-08-23T15:27:22.964Z,12.20
2022-08-23T15:29:50.739Z,12.52
2022-08-23T15:32:22.628Z,11.95
2022-08-23T15:34:52.319Z,12.30
2022-08-23T15:37:21.276Z,12.52
2022-08-23T15:39:49.199Z,12.05
2022-08-23T15:42:20.318Z,11.88
2022-08-23T15:44:48.246Z,10.95
2022-08-23T15:47:20.535Z,12.23
2022-08-23T15:49:48.523Z,11.80
2022-08-23T15:52:28.948Z,11.70
2022-08-23T15:54:57.171Z,10.95
2022-08-23T15:57:27.897Z,11.43
2022-08-23T15:59:56.287Z,10.50
2022-08-23T16:02:24.182Z,10.23
2022-08-23T16:04:51.805Z,11.43
2022-08-23T16:07:19.124Z,9.73
2022-08-23T16:09:50.097Z,10.52
2022-08-23T16:12:22.508Z,10.55
2022-08-23T16:14:52.994Z,9.70
2022-08-23T16:17:21.372Z,9.85
2022-08-23T16:19:49.386Z,10.30
2022-08-23T16:22:21.292Z,9.48
2022-08-23T16:24:52.552Z,8.95
2022-08-23T16:27:20.181Z,9.13
2022-08-23T16:29:47.957Z,8.63
2022-08-23T16:32:15.359Z,10.25
2022-08-23T16:34:42.959Z,9.55
2022-08-23T16:37:12.657Z,9.05
2022-08-23T16:39:40.092Z,9.35
2022-08-23T16:42:09.365Z,8.98
2022-08-23T16:44:36.814Z,8.85
2022-08-23T16:47:09.046Z,10.10
2022-08-23T16:49:36.918Z,9.90
2022-08-23T16:52:04.469Z,9.95
2022-08-23T16:54:31.791Z,10.02
2022-08-23T16:57:01.185Z,9.35
2022-08-23T16:59:30.082Z,8.77
2022-08-23T17:02:10.926Z,8.23
2022-08-23T17:04:40.853Z,8.65
2022-08-23T17:07:18.535Z,9.45
2022-08-23T17:09:46.441Z,8.70
2022-08-23T17:12:28.413Z,9.88
2022-08-23T17:14:57.783Z,9.70
2022-08-23T17:17:26.445Z,8.00
2022-08-23T17:19:53.809Z,8.73
2022-08-23T17:22:23.902Z,8.48
2022-08-23T17:24:54.218Z,10.43
2022-08-23T17:27:26.673Z,9.32
2022-08-23T17:29:54.822Z,10.05
2022-08-23T17:32:23.726Z,9.13
2022-08-23T17:34:51.479Z,9.10
2022-08-23T17:37:26.555Z,9.02
2022-08-23T17:39:54.011Z,9.50
2022-08-23T17:42:26.781Z,9.70
2022-08-23T17:44:59.711Z,9.45
2022-08-23T17:47:30.116Z,9.73
2022-08-23T17:50:02.647Z,9.38
2022-08-23T17:52:35.126Z,10.70
2022-08-23T17:55:04.725Z,10.43
2022-08-23T17:57:32.760Z,9.68
2022-08-23T18:00:00.413Z,10.95
2022-08-23T18:02:29.326Z,10.10
2022-08-23T18:04:57.389Z,8.73
2022-08-23T18:07:27.654Z,9.35
2022-08-23T18:09:54.999Z,9.50
2022-08-23T18:12:29.942Z,8.80
2022-08-23T18:15:00.614Z,9.55
2022-08-23T18:17:29.701Z,9.52
2022-08-23T18:19:57.005Z,9.23
2022-08-23T18:22:27.542Z,8.55
2022-08-23T18:24:56.670Z,8.77
2022-08-23T18:27:25.813Z,8.05
2022-08-23T18:29:56.173Z,9.35
2022-08-23T18:32:23.805Z,8.85
2022-08-23T18:34:55.524Z,7.50
2022-08-23T18:37:22.950Z,8.65
2022-08-23T18:39:50.840Z,7.85
2022-08-23T18:42:18.750Z,8.43
2022-08-23T18:44:51.238Z,7.88
2022-08-23T18:47:19.062Z,7.13
2022-08-23T18:49:48.987Z,7.22
2022-08-23T18:52:18.108Z,7.68
2022-08-23T18:54:47.674Z,6.68
2022-08-23T18:57:15.801Z,6.47
2022-08-23T18:59:43.712Z,6.25
2022-08-23T19:02:11.649Z,6.90
2022-08-23T19:04:39.226Z,5.75
2022-08-23T19:07:06.613Z,5.75
2022-08-23T19:09:36.811Z,6.03
2022-08-23T19:12:04.784Z,6.65
2022-08-23T19:14:35.141Z,5.28
2022-08-23T19:17:13.789Z,6.05
2022-08-23T19:19:43.601Z,5.97
2022-08-23T19:22:10.931Z,5.88
2022-08-23T19:24:41.550Z,6.18
2022-08-23T19:27:08.879Z,5.22
2022-08-23T19:29:36.401Z,5.72
2022-08-23T19:32:04.753Z,5.47
2022-08-23T19:34:32.592Z,5.47
2022-08-23T19:37:01.514Z,6.25
2022-08-23T19:39:31.063Z,5.28
2022-08-23T19:41:59.739Z,6.07
2022-08-23T19:44:27.252Z,5.93
2022-08-23T19:47:19.705Z,5.53
2022-08-23T19:49:48.670Z,5.32
2022-08-23T19:52:19.200Z,5.85
2022-08-23T19:54:47.068Z,5.22
2022-08-23T19:57:21.570Z,5.90
2022-08-23T19:59:49.394Z,5.45
2022-08-23T20:02:17.126Z,5.75
2022-08-23T20:04:47.263Z,5.38
2022-08-23T20:07:16.011Z,6.03
2022-08-23T20:09:43.558Z,6.13
2022-08-23T20:12:15.136Z,6.60
2022-08-23T20:17:16.215Z,5.03
2022-08-23T20:19:44.054Z,6.25
2022-08-23T20:22:15.548Z,5.63
2022-08-23T20:24:51.601Z,5.93
2022-08-23T20:27:29.042Z,6.57
2022-08-23T20:29:59.394Z,5.82
2022-08-23T20:32:27.244Z,6.60
2022-08-23T20:34:59.991Z,6.40
2022-08-23T20:37:32.106Z,7.82
2022-08-23T20:39:59.850Z,6.32
2022-08-23T20:42:31.309Z,6.22
2022-08-23T20:45:04.343Z,6.75
2022-08-23T20:47:31.757Z,6.95
2022-08-23T20:49:59.440Z,7.85
2022-08-23T20:52:27.375Z,6.70
2022-08-23T20:54:56.270Z,8.20
2022-08-23T20:57:23.969Z,7.47
2022-08-23T20:59:58.029Z,8.70
2022-08-23T21:02:25.503Z,8.73
2022-08-23T21:04:52.917Z,7.32
2022-08-23T21:07:20.409Z,8.10
2022-08-23T21:09:49.667Z,8.60
2022-08-23T21:12:16.907Z,7.95
2022-08-23T21:14:44.831Z,8.32
2022-08-23T21:17:13.550Z,8.82
2022-08-23T21:19:40.817Z,8.75
2022-08-23T21:22:08.455Z,9.57
2022-08-23T21:24:35.672Z,9.70
2022-08-23T21:27:02.978Z,8.88
2022-08-23T21:29:37.320Z,9.35
2022-08-23T21:32:04.880Z,11.50
2022-08-23T21:34:33.669Z,10.48
2022-08-23T21:37:01.581Z,10.13
2022-08-23T21:39:28.910Z,10.65
2022-08-23T21:41:56.903Z,11.18
2022-08-23T21:44:26.365Z,10.60
2022-08-23T21:46:53.769Z,9.25
2022-08-23T21:49:21.168Z,9.70
2022-08-23T21:51:50.407Z,10.50
2022-08-23T21:54:17.768Z,9.88
2022-08-23T21:56:45.263Z,10.77
2022-08-23T21:59:15.213Z,11.82
2022-08-23T22:01:43.123Z,10.93
2022-08-23T22:04:11.517Z,12.32
2022-08-23T22:06:40.400Z,13.07
2022-08-23T22:09:12.193Z,13.18
2022-08-23T22:11:41.996Z,13.40
2022-08-23T22:14:10.464Z,14.40
2022-08-23T22:16:37.778Z,15.13
2022-08-23T22:19:05.590Z,15.77
2022-08-23T22:21:35.394Z,14.77
2022-08-23T22:24:03.408Z,16.73
2022-08-23T22:26:32.488Z,16.45
2022-08-23T22:29:00.270Z,16.60
2022-08-23T22:31:27.569Z,17.20
2022-08-23T22:33:55.312Z,17.70
2022-08-23T22:36:23.824Z,16.60
2022-08-23T22:38:51.807Z,18.00
2022-08-23T22:41:21.165Z,16.10
2022-08-23T22:43:49.783Z,19.73
2022-08-23T22:46:17.105Z,18.33
2022-08-23T22:48:44.668Z,18.20
2022-08-23T22:51:13.896Z,18.88
2022-08-23T22:53:43.956Z,18.35
2022-08-23T22:56:12.687Z,20.23
2022-08-23T22:58:40.006Z,18.20
2022-08-23T23:01:12.966Z,18.30
2022-08-23T23:03:41.541Z,18.42
2022-08-23T23:06:09.487Z,18.92
2022-08-23T23:08:36.815Z,18.88
2022-08-23T23:11:06.538Z,18.42
2022-08-23T23:13:34.384Z,18.85
2022-08-23T23:16:03.920Z,18.85
2022-08-23T23:18:33.835Z,17.42
2022-08-23T23:21:03.938Z,18.27
2022-08-23T23:23:32.202Z,19.42
2022-08-23T23:25:59.741Z,18.02
2022-08-23T23:28:27.353Z,17.08
2022-08-23T23:30:56.204Z,21.50
2022-08-23T23:33:24.280Z,21.30
2022-08-23T23:35:52.870Z,19.92
2022-08-23T23:38:20.160Z,21.15
2022-08-23T23:40:47.661Z,21.17
2022-08-23T23:43:14.881Z,20.83
2022-08-23T23:45:42.436Z,21.98
2022-08-23T23:48:11.380Z,22.05
2022-08-23T23:50:42.448Z,21.50
2022-08-23T23:53:14.919Z,22.77
2022-08-23T23:55:42.232Z,22.00
2022-08-23T23:58:09.713Z,21.60
